sensor_id;sensor_type;location;lat;lon;timestamp;P1;durP1;ratioP1;P2;durP2;ratioP2
12222;SDS011;6174;49.058;8.524;2023-08-06T06:00:46;2.50;;;1.87;;
12222;SDS011;6174;49.058;8.524;2023-08-06T06:03:13;3.53;;;1.70;;
12222;SDS011;6174;49.058;8.524;2023-08-06T06:05:53;2.53;;;1.47;;
12222;SDS011;6174;49.058;8.524;2023-08-06T06:08:49;2.03;;;1.57;;
12222;SDS011;6174;49.058;8.524;2023-08-06T06:12:02;3.70;;;1.80;;
12222;SDS011;6174;49.058;8.524;2023-08-06T06:14:42;3.23;;;2.10;;
12222;SDS011;6174;49.058;8.524;2023-08-06T06:20:10;3.73;;;1.83;;
12222;SDS011;6174;49.058;8.524;2023-08-06T06:22:39;2.80;;;1.40;;
12222;SDS011;6174;49.058;8.524;2023-08-06T06:25:18;3.47;;;1.30;;
12222;SDS011;6174;49.058;8.524;2023-08-06T06:27:44;2.17;;;1.47;;
12222;SDS011;6174;49.058;8.524;2023-08-06T06:30:11;1.47;;;1.20;;
12222;SDS011;6174;49.058;8.524;2023-08-06T06:32:40;2.70;;;1.10;;
12222;SDS011;6174;49.058;8.524;2023-08-06T06:35:07;1.50;;;1.13;;
12222;SDS011;6174;49.058;8.524;2023-08-06T06:37:35;0.87;;;0.87;;
12222;SDS011;6174;49.058;8.524;2023-08-06T06:40:01;2.60;;;1.03;;
12222;SDS011;6174;49.058;8.524;2023-08-06T06:42:29;1.80;;;0.80;;
12222;SDS011;6174;49.058;8.524;2023-08-06T06:44:55;1.90;;;0.90;;
12222;SDS011;6174;49.058;8.524;2023-08-06T06:47:22;1.70;;;1.03;;
12222;SDS011;6174;49.058;8.524;2023-08-06T06:49:50;1.30;;;0.70;;
12222;SDS011;6174;49.058;8.524;2023-08-06T06:52:17;0.40;;;0.40;;
12222;SDS011;6174;49.058;8.524;2023-08-06T06:54:46;0.97;;;0.47;;
12222;SDS011;6174;49.058;8.524;2023-08-06T06:57:13;0.97;;;0.70;;
12222;SDS011;6174;49.058;8.524;2023-08-06T06:59:40;1.77;;;0.70;;
12222;SDS011;6174;49.058;8.524;2023-08-06T07:02:07;0.30;;;0.30;;
12222;SDS011;6174;49.058;8.524;2023-08-06T07:04:34;1.00;;;0.80;;
12222;SDS011;6174;49.058;8.524;2023-08-06T07:07:03;0.60;;;0.60;;
12222;SDS011;6174;49.058;8.524;2023-08-06T07:09:30;1.60;;;0.43;;
12222;SDS011;6174;49.058;8.524;2023-08-06T07:11:56;1.53;;;0.60;;
12222;SDS011;6174;49.058;8.524;2023-08-06T07:14:24;0.77;;;0.53;;
12222;SDS011;6174;49.058;8.524;2023-08-06T07:16:51;1.10;;;0.50;;
12222;SDS011;6174;49.058;8.524;2023-08-06T07:19:18;1.80;;;0.87;;
12222;SDS011;6174;49.058;8.524;2023-08-06T07:21:45;0.57;;;0.57;;
12222;SDS011;6174;49.058;8.524;2023-08-06T07:24:13;1.07;;;0.50;;
12222;SDS011;6174;49.058;8.524;2023-08-06T07:26:40;0.70;;;0.60;;
12222;SDS011;6174;49.058;8.524;2023-08-06T07:29:07;1.83;;;0.70;;
12222;SDS011;6174;49.058;8.524;2023-08-06T07:31:33;0.87;;;0.77;;
12222;SDS011;6174;49.058;8.524;2023-08-06T07:34:00;1.23;;;0.70;;
12222;SDS011;6174;49.058;8.524;2023-08-06T07:36:27;0.90;;;0.87;;
12222;SDS011;6174;49.058;8.524;2023-08-06T07:38:54;0.60;;;0.53;;
12222;SDS011;6174;49.058;8.524;2023-08-06T07:41:23;1.07;;;0.80;;
12222;SDS011;6174;49.058;8.524;2023-08-06T07:43:50;1.47;;;0.63;;
12222;SDS011;6174;49.058;8.524;2023-08-06T07:46:16;1.30;;;1.10;;
12222;SDS011;6174;49.058;8.524;2023-08-06T07:48:43;1.00;;;0.80;;
12222;SDS011;6174;49.058;8.524;2023-08-06T07:51:10;0.90;;;0.87;;
12222;SDS011;6174;49.058;8.524;2023-08-06T07:53:36;0.73;;;0.73;;
12222;SDS011;6174;49.058;8.524;2023-08-06T07:56:04;1.37;;;0.50;;
12222;SDS011;6174;49.058;8.524;2023-08-06T07:58:32;0.83;;;0.57;;
12222;SDS011;6174;49.058;8.524;2023-08-06T08:00:58;1.50;;;0.80;;
12222;SDS011;6174;49.058;8.524;2023-08-06T08:03:25;1.23;;;0.70;;
12222;SDS011;6174;49.058;8.524;2023-08-06T08:05:54;1.00;;;0.70;;
12222;SDS011;6174;49.058;8.524;2023-08-06T08:08:22;0.93;;;0.63;;
12222;SDS011;6174;49.058;8.524;2023-08-06T08:10:49;1.13;;;0.70;;
12222;SDS011;6174;49.058;8.524;2023-08-06T08:13:16;1.60;;;0.70;;
12222;SDS011;6174;49.058;8.524;2023-08-06T08:15:44;1.10;;;0.63;;
12222;SDS011;6174;49.058;8.524;2023-08-06T08:18:10;1.20;;;0.63;;
12222;SDS011;6174;49.058;8.524;2023-08-06T08:20:37;1.97;;;0.70;;
12222;SDS011;6174;49.058;8.524;2023-08-06T08:23:04;0.47;;;0.40;;
12222;SDS011;6174;49.058;8.524;2023-08-06T08:25:31;0.30;;;0.30;;
12222;SDS011;6174;49.058;8.524;2023-08-06T08:27:59;3.43;;;1.83;;
12222;SDS011;6174;49.058;8.524;2023-08-06T08:30:25;2.63;;;1.47;;
12222;SDS011;6174;49.058;8.524;2023-08-06T08:32:54;1.33;;;1.23;;
12222;SDS011;6174;49.058;8.524;2023-08-06T08:35:21;2.17;;;0.60;;
12222;SDS011;6174;49.058;8.524;2023-08-06T08:37:47;1.00;;;0.60;;
12222;SDS011;6174;49.058;8.524;2023-08-06T08:40:15;0.87;;;0.70;;
12222;SDS011;6174;49.058;8.524;2023-08-06T08:42:42;0.77;;;0.77;;
12222;SDS011;6174;49.058;8.524;2023-08-06T08:45:11;1.27;;;0.80;;
12222;SDS011;6174;49.058;8.524;2023-08-06T08:47:39;1.93;;;0.73;;
12222;SDS011;6174;49.058;8.524;2023-08-06T08:50:09;1.33;;;0.80;;
12222;SDS011;6174;49.058;8.524;2023-08-06T08:52:38;1.17;;;0.80;;
12222;SDS011;6174;49.058;8.524;2023-08-06T08:55:06;1.40;;;1.00;;
12222;SDS011;6174;49.058;8.524;2023-08-06T08:57:34;1.20;;;1.10;;
12222;SDS011;6174;49.058;8.524;2023-08-06T09:00:01;2.20;;;0.70;;
12222;SDS011;6174;49.058;8.524;2023-08-06T09:02:28;1.57;;;0.80;;
12222;SDS011;6174;49.058;8.524;2023-08-06T09:04:56;1.00;;;0.80;;
12222;SDS011;6174;49.058;8.524;2023-08-06T09:07:26;0.87;;;0.50;;
12222;SDS011;6174;49.058;8.524;2023-08-06T09:09:53;0.93;;;0.70;;
12222;SDS011;6174;49.058;8.524;2023-08-06T09:12:21;1.23;;;0.77;;
12222;SDS011;6174;49.058;8.524;2023-08-06T09:14:49;1.30;;;1.03;;
12222;SDS011;6174;49.058;8.524;2023-08-06T09:17:16;0.77;;;0.63;;
12222;SDS011;6174;49.058;8.524;2023-08-06T09:19:45;0.77;;;0.50;;
12222;SDS011;6174;49.058;8.524;2023-08-06T09:22:13;0.80;;;0.70;;
12222;SDS011;6174;49.058;8.524;2023-08-06T09:24:42;1.63;;;0.93;;
12222;SDS011;6174;49.058;8.524;2023-08-06T09:27:12;0.93;;;0.70;;
12222;SDS011;6174;49.058;8.524;2023-08-06T09:29:40;0.50;;;0.50;;
12222;SDS011;6174;49.058;8.524;2023-08-06T09:32:08;1.20;;;0.60;;
12222;SDS011;6174;49.058;8.524;2023-08-06T09:34:35;0.60;;;0.60;;
12222;SDS011;6174;49.058;8.524;2023-08-06T09:37:05;1.27;;;0.40;;
12222;SDS011;6174;49.058;8.524;2023-08-06T09:39:32;1.40;;;0.70;;
12222;SDS011;6174;49.058;8.524;2023-08-06T09:42:00;2.30;;;0.60;;
12222;SDS011;6174;49.058;8.524;2023-08-06T09:44:30;0.50;;;0.40;;
12222;SDS011;6174;49.058;8.524;2023-08-06T09:46:58;0.93;;;0.47;;
12222;SDS011;6174;49.058;8.524;2023-08-06T09:49:26;1.37;;;0.80;;
12222;SDS011;6174;49.058;8.524;2023-08-06T09:51:54;0.73;;;0.50;;
12222;SDS011;6174;49.058;8.524;2023-08-06T09:54:23;0.40;;;0.40;;
12222;SDS011;6174;49.058;8.524;2023-08-06T09:56:52;0.73;;;0.73;;
12222;SDS011;6174;49.058;8.524;2023-08-06T09:59:20;2.03;;;1.30;;
12222;SDS011;6174;49.058;8.524;2023-08-06T10:01:47;0.70;;;0.70;;
12222;SDS011;6174;49.058;8.524;2023-08-06T10:04:15;0.73;;;0.60;;
12222;SDS011;6174;49.058;8.524;2023-08-06T10:06:42;0.40;;;0.30;;
12222;SDS011;6174;49.058;8.524;2023-08-06T10:09:12;0.57;;;0.40;;
12222;SDS011;6174;49.058;8.524;2023-08-06T10:11:39;0.40;;;0.40;;
12222;SDS011;6174;49.058;8.524;2023-08-06T10:14:06;0.33;;;0.33;;
12222;SDS011;6174;49.058;8.524;2023-08-06T10:16:39;1.10;;;0.30;;
12222;SDS011;6174;49.058;8.524;2023-08-06T10:19:07;0.80;;;0.50;;
12222;SDS011;6174;49.058;8.524;2023-08-06T10:21:37;0.57;;;0.40;;
12222;SDS011;6174;49.058;8.524;2023-08-06T10:24:06;0.83;;;0.60;;
12222;SDS011;6174;49.058;8.524;2023-08-06T10:26:35;0.87;;;0.70;;
12222;SDS011;6174;49.058;8.524;2023-08-06T10:29:05;0.60;;;0.57;;
12222;SDS011;6174;49.058;8.524;2023-08-06T10:32:04;3.60;;;3.20;;
12222;SDS011;6174;49.058;8.524;2023-08-06T10:37:22;1.40;;;0.90;;
12222;SDS011;6174;49.058;8.524;2023-08-06T10:39:50;1.40;;;0.93;;
12222;SDS011;6174;49.058;8.524;2023-08-06T10:42:21;1.50;;;0.83;;
12222;SDS011;6174;49.058;8.524;2023-08-06T10:47:38;1.00;;;0.90;;
12222;SDS011;6174;49.058;8.524;2023-08-06T10:50:06;1.27;;;1.23;;
12222;SDS011;6174;49.058;8.524;2023-08-06T10:52:33;1.30;;;1.20;;
12222;SDS011;6174;49.058;8.524;2023-08-06T10:55:00;1.33;;;1.23;;
12222;SDS011;6174;49.058;8.524;2023-08-06T10:57:27;1.60;;;1.50;;
12222;SDS011;6174;49.058;8.524;2023-08-06T10:59:53;1.57;;;1.47;;
12222;SDS011;6174;49.058;8.524;2023-08-06T11:02:20;1.57;;;1.47;;
12222;SDS011;6174;49.058;8.524;2023-08-06T11:04:49;3.23;;;1.47;;
12222;SDS011;6174;49.058;8.524;2023-08-06T11:07:16;1.63;;;1.53;;
12222;SDS011;6174;49.058;8.524;2023-08-06T11:09:43;1.67;;;1.57;;
12222;SDS011;6174;49.058;8.524;2023-08-06T11:12:10;1.77;;;1.67;;
12222;SDS011;6174;49.058;8.524;2023-08-06T11:14:37;2.57;;;1.90;;
12222;SDS011;6174;49.058;8.524;2023-08-06T11:17:04;1.93;;;1.70;;
12222;SDS011;6174;49.058;8.524;2023-08-06T11:19:31;1.87;;;1.77;;
12222;SDS011;6174;49.058;8.524;2023-08-06T11:21:59;2.20;;;2.00;;
12222;SDS011;6174;49.058;8.524;2023-08-06T11:24:27;2.20;;;2.00;;
12222;SDS011;6174;49.058;8.524;2023-08-06T11:26:53;2.20;;;1.97;;
12222;SDS011;6174;49.058;8.524;2023-08-06T11:29:20;2.90;;;2.20;;
12222;SDS011;6174;49.058;8.524;2023-08-06T11:31:48;3.00;;;2.10;;
12222;SDS011;6174;49.058;8.524;2023-08-06T11:34:14;2.27;;;2.03;;
12222;SDS011;6174;49.058;8.524;2023-08-06T11:36:42;3.27;;;2.33;;
12222;SDS011;6174;49.058;8.524;2023-08-06T11:39:10;3.23;;;2.20;;
12222;SDS011;6174;49.058;8.524;2023-08-06T11:41:37;4.63;;;2.40;;
12222;SDS011;6174;49.058;8.524;2023-08-06T11:44:04;3.13;;;2.17;;
12222;SDS011;6174;49.058;8.524;2023-08-06T11:49:17;4.37;;;2.50;;
12222;SDS011;6174;49.058;8.524;2023-08-06T11:51:46;2.90;;;2.27;;
12222;SDS011;6174;49.058;8.524;2023-08-06T11:54:15;3.53;;;2.10;;
12222;SDS011;6174;49.058;8.524;2023-08-06T11:56:41;3.77;;;2.57;;
12222;SDS011;6174;49.058;8.524;2023-08-06T11:59:08;2.73;;;2.10;;
12222;SDS011;6174;49.058;8.524;2023-08-06T12:01:35;3.50;;;2.60;;
12222;SDS011;6174;49.058;8.524;2023-08-06T12:04:04;3.07;;;2.43;;
12222;SDS011;6174;49.058;8.524;2023-08-06T12:06:31;2.67;;;2.27;;
12222;SDS011;6174;49.058;8.524;2023-08-06T12:09:08;4.13;;;2.63;;
12222;SDS011;6174;49.058;8.524;2023-08-06T12:11:37;2.97;;;2.30;;
12222;SDS011;6174;49.058;8.524;2023-08-06T12:14:04;2.57;;;2.30;;
12222;SDS011;6174;49.058;8.524;2023-08-06T12:16:30;3.33;;;2.37;;
12222;SDS011;6174;49.058;8.524;2023-08-06T12:18:57;3.00;;;2.30;;
12222;SDS011;6174;49.058;8.524;2023-08-06T12:21:24;4.13;;;2.40;;
12222;SDS011;6174;49.058;8.524;2023-08-06T12:23:51;3.30;;;2.17;;
12222;SDS011;6174;49.058;8.524;2023-08-06T12:26:17;2.57;;;2.23;;
12222;SDS011;6174;49.058;8.524;2023-08-06T12:28:45;4.47;;;2.17;;
12222;SDS011;6174;49.058;8.524;2023-08-06T12:31:14;3.53;;;2.30;;
12222;SDS011;6174;49.058;8.524;2023-08-06T12:33:41;2.43;;;2.10;;
12222;SDS011;6174;49.058;8.524;2023-08-06T12:36:08;3.33;;;2.20;;
12222;SDS011;6174;49.058;8.524;2023-08-06T12:38:34;3.07;;;1.80;;
12222;SDS011;6174;49.058;8.524;2023-08-06T12:41:01;2.67;;;2.33;;
12222;SDS011;6174;49.058;8.524;2023-08-06T12:43:28;2.33;;;1.80;;
12222;SDS011;6174;49.058;8.524;2023-08-06T12:45:56;2.40;;;1.90;;
12222;SDS011;6174;49.058;8.524;2023-08-06T12:48:23;2.43;;;1.90;;
12222;SDS011;6174;49.058;8.524;2023-08-06T12:50:50;2.73;;;2.00;;
12222;SDS011;6174;49.058;8.524;2023-08-06T12:53:16;2.00;;;1.80;;
12222;SDS011;6174;49.058;8.524;2023-08-06T12:55:46;2.13;;;1.80;;
12222;SDS011;6174;49.058;8.524;2023-08-06T12:58:12;2.37;;;2.00;;
12222;SDS011;6174;49.058;8.524;2023-08-06T13:00:39;2.30;;;2.03;;
12222;SDS011;6174;49.058;8.524;2023-08-06T13:03:07;3.87;;;2.00;;
12222;SDS011;6174;49.058;8.524;2023-08-06T13:05:34;2.60;;;1.70;;
12222;SDS011;6174;49.058;8.524;2023-08-06T13:08:01;1.73;;;1.60;;
12222;SDS011;6174;49.058;8.524;2023-08-06T13:10:28;1.83;;;1.60;;
12222;SDS011;6174;49.058;8.524;2023-08-06T13:12:56;1.70;;;1.30;;
12222;SDS011;6174;49.058;8.524;2023-08-06T13:15:23;1.83;;;1.40;;
12222;SDS011;6174;49.058;8.524;2023-08-06T13:17:49;1.40;;;1.30;;
12222;SDS011;6174;49.058;8.524;2023-08-06T13:20:18;1.33;;;1.23;;
12222;SDS011;6174;49.058;8.524;2023-08-06T13:22:44;2.63;;;0.90;;
12222;SDS011;6174;49.058;8.524;2023-08-06T13:25:11;1.73;;;0.80;;
12222;SDS011;6174;49.058;8.524;2023-08-06T13:27:39;1.13;;;0.80;;
12222;SDS011;6174;49.058;8.524;2023-08-06T13:30:09;0.83;;;0.80;;
12222;SDS011;6174;49.058;8.524;2023-08-06T13:32:36;0.80;;;0.80;;
12222;SDS011;6174;49.058;8.524;2023-08-06T13:35:03;0.87;;;0.60;;
12222;SDS011;6174;49.058;8.524;2023-08-06T13:37:31;0.80;;;0.80;;
12222;SDS011;6174;49.058;8.524;2023-08-06T13:39:58;1.20;;;0.77;;
12222;SDS011;6174;49.058;8.524;2023-08-06T13:42:25;1.23;;;1.03;;
12222;SDS011;6174;49.058;8.524;2023-08-06T13:44:52;0.73;;;0.73;;
12222;SDS011;6174;49.058;8.524;2023-08-06T13:47:24;0.97;;;0.90;;
12222;SDS011;6174;49.058;8.524;2023-08-06T13:49:51;1.17;;;0.80;;
12222;SDS011;6174;49.058;8.524;2023-08-06T13:52:17;1.10;;;0.90;;
12222;SDS011;6174;49.058;8.524;2023-08-06T13:54:46;1.87;;;0.97;;
12222;SDS011;6174;49.058;8.524;2023-08-06T13:57:12;1.00;;;1.00;;
12222;SDS011;6174;49.058;8.524;2023-08-06T13:59:39;1.00;;;0.97;;
12222;SDS011;6174;49.058;8.524;2023-08-06T14:02:06;0.90;;;0.90;;
12222;SDS011;6174;49.058;8.524;2023-08-06T14:04:33;1.00;;;1.00;;
12222;SDS011;6174;49.058;8.524;2023-08-06T14:06:59;1.33;;;0.80;;
12222;SDS011;6174;49.058;8.524;2023-08-06T14:09:27;1.10;;;0.90;;
12222;SDS011;6174;49.058;8.524;2023-08-06T14:11:55;1.17;;;1.07;;
12222;SDS011;6174;49.058;8.524;2023-08-06T14:14:21;0.93;;;0.83;;
12222;SDS011;6174;49.058;8.524;2023-08-06T14:16:51;1.23;;;1.00;;
12222;SDS011;6174;49.058;8.524;2023-08-06T14:19:17;2.60;;;1.10;;
12222;SDS011;6174;49.058;8.524;2023-08-06T14:21:44;0.90;;;0.90;;
12222;SDS011;6174;49.058;8.524;2023-08-06T14:24:11;1.60;;;0.90;;
12222;SDS011;6174;49.058;8.524;2023-08-06T14:26:38;0.83;;;0.83;;
12222;SDS011;6174;49.058;8.524;2023-08-06T14:29:07;1.87;;;0.93;;
12222;SDS011;6174;49.058;8.524;2023-08-06T14:31:33;1.33;;;1.00;;
12222;SDS011;6174;49.058;8.524;2023-08-06T14:34:00;1.37;;;0.90;;
12222;SDS011;6174;49.058;8.524;2023-08-06T14:36:27;1.47;;;0.80;;
12222;SDS011;6174;49.058;8.524;2023-08-06T14:38:54;2.03;;;0.90;;
12222;SDS011;6174;49.058;8.524;2023-08-06T14:41:20;1.53;;;0.83;;
12222;SDS011;6174;49.058;8.524;2023-08-06T14:43:47;0.60;;;0.60;;
12222;SDS011;6174;49.058;8.524;2023-08-06T14:46:15;1.13;;;1.07;;
12222;SDS011;6174;49.058;8.524;2023-08-06T14:48:42;1.47;;;1.00;;
12222;SDS011;6174;49.058;8.524;2023-08-06T14:51:09;0.93;;;0.87;;
12222;SDS011;6174;49.058;8.524;2023-08-06T14:53:36;1.70;;;0.87;;
12222;SDS011;6174;49.058;8.524;2023-08-06T14:56:02;1.10;;;1.00;;
12222;SDS011;6174;49.058;8.524;2023-08-06T14:58:29;1.17;;;1.10;;
12222;SDS011;6174;49.058;8.524;2023-08-06T15:00:56;1.43;;;1.00;;
12222;SDS011;6174;49.058;8.524;2023-08-06T15:03:24;1.00;;;1.00;;
12222;SDS011;6174;49.058;8.524;2023-08-06T15:05:52;1.53;;;1.00;;
12222;SDS011;6174;49.058;8.524;2023-08-06T15:08:19;0.80;;;0.77;;
12222;SDS011;6174;49.058;8.524;2023-08-06T15:10:49;1.17;;;0.70;;
12222;SDS011;6174;49.058;8.524;2023-08-06T15:13:16;1.03;;;0.93;;
12222;SDS011;6174;49.058;8.524;2023-08-06T15:15:43;0.73;;;0.70;;
12222;SDS011;6174;49.058;8.524;2023-08-06T15:18:10;2.10;;;1.00;;
12222;SDS011;6174;49.058;8.524;2023-08-06T15:20:38;1.60;;;1.00;;
12222;SDS011;6174;49.058;8.524;2023-08-06T15:23:05;1.50;;;0.83;;
12222;SDS011;6174;49.058;8.524;2023-08-06T15:25:32;1.10;;;0.90;;
12222;SDS011;6174;49.058;8.524;2023-08-06T15:27:58;1.37;;;1.03;;
12222;SDS011;6174;49.058;8.524;2023-08-06T15:30:25;2.67;;;0.90;;
12222;SDS011;6174;49.058;8.524;2023-08-06T15:32:52;1.23;;;0.90;;
12222;SDS011;6174;49.058;8.524;2023-08-06T15:35:18;2.57;;;1.00;;
12222;SDS011;6174;49.058;8.524;2023-08-06T15:37:47;1.17;;;1.03;;
12222;SDS011;6174;49.058;8.524;2023-08-06T15:40:13;1.27;;;0.90;;
12222;SDS011;6174;49.058;8.524;2023-08-06T15:42:40;1.70;;;1.20;;
12222;SDS011;6174;49.058;8.524;2023-08-06T15:45:07;1.40;;;1.10;;
12222;SDS011;6174;49.058;8.524;2023-08-06T15:47:34;1.53;;;1.30;;
12222;SDS011;6174;49.058;8.524;2023-08-06T15:50:05;1.80;;;1.50;;
12222;SDS011;6174;49.058;8.524;2023-08-06T15:52:33;1.23;;;1.10;;
12222;SDS011;6174;49.058;8.524;2023-08-06T15:55:01;1.67;;;1.57;;
12222;SDS011;6174;49.058;8.524;2023-08-06T15:57:30;2.10;;;1.50;;
12222;SDS011;6174;49.058;8.524;2023-08-06T15:59:57;2.23;;;1.47;;
12222;SDS011;6174;49.058;8.524;2023-08-06T16:02:23;1.43;;;1.33;;
12222;SDS011;6174;49.058;8.524;2023-08-06T16:04:52;1.80;;;1.40;;
12222;SDS011;6174;49.058;8.524;2023-08-06T16:07:19;2.00;;;1.80;;
12222;SDS011;6174;49.058;8.524;2023-08-06T16:09:48;4.03;;;1.63;;
12222;SDS011;6174;49.058;8.524;2023-08-06T16:12:17;2.13;;;1.73;;
12222;SDS011;6174;49.058;8.524;2023-08-06T16:14:44;3.40;;;1.97;;
12222;SDS011;6174;49.058;8.524;2023-08-06T16:17:11;1.50;;;1.37;;
12222;SDS011;6174;49.058;8.524;2023-08-06T16:19:38;3.50;;;1.53;;
12222;SDS011;6174;49.058;8.524;2023-08-06T16:22:06;1.90;;;1.60;;
12222;SDS011;6174;49.058;8.524;2023-08-06T16:24:33;1.63;;;1.50;;
12222;SDS011;6174;49.058;8.524;2023-08-06T16:27:00;1.87;;;1.60;;
12222;SDS011;6174;49.058;8.524;2023-08-06T16:29:28;2.37;;;1.70;;
12222;SDS011;6174;49.058;8.524;2023-08-06T16:31:55;2.00;;;1.53;;
12222;SDS011;6174;49.058;8.524;2023-08-06T16:34:22;2.53;;;1.50;;
12222;SDS011;6174;49.058;8.524;2023-08-06T16:36:49;2.67;;;1.60;;
12222;SDS011;6174;49.058;8.524;2023-08-06T16:39:16;1.90;;;1.50;;
12222;SDS011;6174;49.058;8.524;2023-08-06T16:41:45;1.50;;;1.40;;
12222;SDS011;6174;49.058;8.524;2023-08-06T16:44:11;1.77;;;1.53;;
12222;SDS011;6174;49.058;8.524;2023-08-06T16:46:40;2.43;;;1.60;;
12222;SDS011;6174;49.058;8.524;2023-08-06T16:49:06;2.00;;;1.57;;
12222;SDS011;6174;49.058;8.524;2023-08-06T16:54:08;1.43;;;1.33;;
12222;SDS011;6174;49.058;8.524;2023-08-06T16:56:35;1.53;;;1.43;;
12222;SDS011;6174;49.058;8.524;2023-08-06T16:59:02;2.30;;;1.50;;
12222;SDS011;6174;49.058;8.524;2023-08-06T17:01:29;1.93;;;1.83;;
12222;SDS011;6174;49.058;8.524;2023-08-06T17:03:57;2.40;;;1.73;;
12222;SDS011;6174;49.058;8.524;2023-08-06T17:06:24;1.77;;;1.60;;
12222;SDS011;6174;49.058;8.524;2023-08-06T17:08:51;2.00;;;1.80;;
12222;SDS011;6174;49.058;8.524;2023-08-06T17:11:18;2.03;;;1.60;;
12222;SDS011;6174;49.058;8.524;2023-08-06T17:13:44;1.60;;;1.50;;
12222;SDS011;6174;49.058;8.524;2023-08-06T17:16:11;1.50;;;1.40;;
12222;SDS011;6174;49.058;8.524;2023-08-06T17:18:38;2.43;;;1.30;;
12222;SDS011;6174;49.058;8.524;2023-08-06T17:21:06;1.40;;;1.30;;
12222;SDS011;6174;49.058;8.524;2023-08-06T17:23:33;1.77;;;1.60;;
12222;SDS011;6174;49.058;8.524;2023-08-06T17:26:00;1.70;;;1.43;;
12222;SDS011;6174;49.058;8.524;2023-08-06T17:28:27;1.30;;;1.20;;
12222;SDS011;6174;49.058;8.524;2023-08-06T17:30:56;1.83;;;1.63;;
12222;SDS011;6174;49.058;8.524;2023-08-06T17:33:23;1.90;;;1.40;;
12222;SDS011;6174;49.058;8.524;2023-08-06T17:35:50;1.60;;;1.50;;
12222;SDS011;6174;49.058;8.524;2023-08-06T17:38:18;1.73;;;1.60;;
12222;SDS011;6174;49.058;8.524;2023-08-06T17:40:45;1.40;;;1.30;;
12222;SDS011;6174;49.058;8.524;2023-08-06T17:43:12;1.60;;;1.50;;
12222;SDS011;6174;49.058;8.524;2023-08-06T17:45:38;1.83;;;1.50;;
12222;SDS011;6174;49.058;8.524;2023-08-06T17:48:05;2.07;;;1.57;;
12222;SDS011;6174;49.058;8.524;2023-08-06T17:50:32;1.60;;;1.50;;
12222;SDS011;6174;49.058;8.524;2023-08-06T17:52:59;2.37;;;1.57;;
12222;SDS011;6174;49.058;8.524;2023-08-06T17:55:27;1.70;;;1.60;;
12222;SDS011;6174;49.058;8.524;2023-08-06T17:57:54;2.30;;;1.70;;
12222;SDS011;6174;49.058;8.524;2023-08-06T18:00:21;1.50;;;1.40;;
12222;SDS011;6174;49.058;8.524;2023-08-06T18:02:50;2.33;;;1.60;;
12222;SDS011;6174;49.058;8.524;2023-08-06T18:05:16;3.17;;;1.70;;
12222;SDS011;6174;49.058;8.524;2023-08-06T18:07:43;1.83;;;1.40;;
12222;SDS011;6174;49.058;8.524;2023-08-06T18:10:10;1.67;;;1.40;;
12222;SDS011;6174;49.058;8.524;2023-08-06T18:12:39;1.97;;;1.30;;
12222;SDS011;6174;49.058;8.524;2023-08-06T18:15:07;5.90;;;1.63;;
12222;SDS011;6174;49.058;8.524;2023-08-06T18:17:36;2.93;;;1.50;;
12222;SDS011;6174;49.058;8.524;2023-08-06T18:20:02;2.33;;;1.50;;
12222;SDS011;6174;49.058;8.524;2023-08-06T18:22:30;1.77;;;1.37;;
12222;SDS011;6174;49.058;8.524;2023-08-06T18:24:57;2.57;;;1.50;;
12222;SDS011;6174;49.058;8.524;2023-08-06T18:27:26;3.07;;;1.70;;
12222;SDS011;6174;49.058;8.524;2023-08-06T18:29:55;3.80;;;1.73;;
12222;SDS011;6174;49.058;8.524;2023-08-06T18:32:21;3.07;;;1.90;;
12222;SDS011;6174;49.058;8.524;2023-08-06T18:34:48;1.87;;;1.30;;
12222;SDS011;6174;49.058;8.524;2023-08-06T18:37:15;2.70;;;1.57;;
12222;SDS011;6174;49.058;8.524;2023-08-06T18:39:41;2.53;;;1.60;;
12222;SDS011;6174;49.058;8.524;2023-08-06T18:42:08;1.70;;;1.60;;
12222;SDS011;6174;49.058;8.524;2023-08-06T18:44:35;2.07;;;1.57;;
12222;SDS011;6174;49.058;8.524;2023-08-06T18:47:03;2.17;;;1.67;;
12222;SDS011;6174;49.058;8.524;2023-08-06T18:49:30;1.57;;;1.47;;
12222;SDS011;6174;49.058;8.524;2023-08-06T18:51:57;2.27;;;1.63;;
12222;SDS011;6174;49.058;8.524;2023-08-06T18:54:24;2.13;;;1.87;;
12222;SDS011;6174;49.058;8.524;2023-08-06T18:56:51;1.70;;;1.50;;
12222;SDS011;6174;49.058;8.524;2023-08-06T18:59:17;2.97;;;1.50;;
12222;SDS011;6174;49.058;8.524;2023-08-06T19:01:47;2.33;;;1.43;;
12222;SDS011;6174;49.058;8.524;2023-08-06T19:04:15;2.70;;;1.70;;
12222;SDS011;6174;49.058;8.524;2023-08-06T19:06:42;1.80;;;1.40;;
12222;SDS011;6174;49.058;8.524;2023-08-06T19:09:09;3.27;;;1.73;;
12222;SDS011;6174;49.058;8.524;2023-08-06T19:11:36;1.70;;;1.60;;
12222;SDS011;6174;49.058;8.524;2023-08-06T19:14:02;2.10;;;1.40;;
12222;SDS011;6174;49.058;8.524;2023-08-06T19:16:29;3.23;;;1.57;;
12222;SDS011;6174;49.058;8.524;2023-08-06T19:18:56;1.80;;;1.40;;
12222;SDS011;6174;49.058;8.524;2023-08-06T19:21:24;1.87;;;1.63;;
12222;SDS011;6174;49.058;8.524;2023-08-06T19:23:51;1.47;;;1.37;;
12222;SDS011;6174;49.058;8.524;2023-08-06T19:26:18;1.93;;;1.63;;
12222;SDS011;6174;49.058;8.524;2023-08-06T19:28:44;1.70;;;1.60;;
12222;SDS011;6174;49.058;8.524;2023-08-06T19:31:11;3.43;;;1.70;;
12222;SDS011;6174;49.058;8.524;2023-08-06T19:33:38;1.17;;;1.07;;
12222;SDS011;6174;49.058;8.524;2023-08-06T19:36:05;2.27;;;1.53;;
12222;SDS011;6174;49.058;8.524;2023-08-06T19:38:33;3.03;;;1.50;;
12222;SDS011;6174;49.058;8.524;2023-08-06T19:41:03;1.50;;;1.40;;
12222;SDS011;6174;49.058;8.524;2023-08-06T19:43:32;1.97;;;1.60;;
12222;SDS011;6174;49.058;8.524;2023-08-06T19:45:59;2.60;;;1.70;;
12222;SDS011;6174;49.058;8.524;2023-08-06T19:48:28;1.60;;;1.50;;
12222;SDS011;6174;49.058;8.524;2023-08-06T19:50:55;2.53;;;1.60;;
12222;SDS011;6174;49.058;8.524;2023-08-06T19:53:36;2.97;;;1.60;;
12222;SDS011;6174;49.058;8.524;2023-08-06T19:56:04;1.50;;;1.30;;
12222;SDS011;6174;49.058;8.524;2023-08-06T19:58:32;3.17;;;1.67;;
12222;SDS011;6174;49.058;8.524;2023-08-06T20:01:00;1.87;;;1.70;;
12222;SDS011;6174;49.058;8.524;2023-08-06T20:03:28;3.27;;;1.60;;
12222;SDS011;6174;49.058;8.524;2023-08-06T20:05:56;1.80;;;1.53;;
12222;SDS011;6174;49.058;8.524;2023-08-06T20:08:27;2.30;;;1.43;;
12222;SDS011;6174;49.058;8.524;2023-08-06T20:10:55;1.67;;;1.43;;
12222;SDS011;6174;49.058;8.524;2023-08-06T20:13:23;3.00;;;1.47;;
12222;SDS011;6174;49.058;8.524;2023-08-06T20:15:50;3.23;;;1.93;;
12222;SDS011;6174;49.058;8.524;2023-08-06T20:18:17;1.50;;;1.40;;
12222;SDS011;6174;49.058;8.524;2023-08-06T20:20:54;2.20;;;1.57;;
12222;SDS011;6174;49.058;8.524;2023-08-06T20:23:21;2.03;;;1.33;;
12222;SDS011;6174;49.058;8.524;2023-08-06T20:25:48;1.77;;;1.57;;
12222;SDS011;6174;49.058;8.524;2023-08-06T20:28:17;1.80;;;1.30;;
12222;SDS011;6174;49.058;8.524;2023-08-06T20:30:44;1.87;;;1.40;;
12222;SDS011;6174;49.058;8.524;2023-08-06T20:33:11;2.67;;;1.73;;
12222;SDS011;6174;49.058;8.524;2023-08-06T20:35:38;3.47;;;1.80;;
12222;SDS011;6174;49.058;8.524;2023-08-06T20:38:21;3.00;;;1.80;;
12222;SDS011;6174;49.058;8.524;2023-08-06T20:41:22;2.90;;;2.03;;
12222;SDS011;6174;49.058;8.524;2023-08-06T20:47:29;1.73;;;1.63;;
12222;SDS011;6174;49.058;8.524;2023-08-06T20:49:56;1.53;;;1.33;;
12222;SDS011;6174;49.058;8.524;2023-08-06T20:52:23;3.93;;;1.90;;
12222;SDS011;6174;49.058;8.524;2023-08-06T20:54:50;3.17;;;1.77;;
12222;SDS011;6174;49.058;8.524;2023-08-06T20:57:16;2.73;;;1.90;;
12222;SDS011;6174;49.058;8.524;2023-08-06T20:59:43;3.77;;;1.70;;
12222;SDS011;6174;49.058;8.524;2023-08-06T21:02:10;2.47;;;1.60;;
12222;SDS011;6174;49.058;8.524;2023-08-06T21:04:38;3.00;;;1.70;;
12222;SDS011;6174;49.058;8.524;2023-08-06T21:07:06;3.80;;;1.63;;
12222;SDS011;6174;49.058;8.524;2023-08-06T21:09:33;2.73;;;1.73;;
12222;SDS011;6174;49.058;8.524;2023-08-06T21:12:03;4.20;;;2.20;;
12222;SDS011;6174;49.058;8.524;2023-08-06T21:14:30;2.93;;;2.00;;
12222;SDS011;6174;49.058;8.524;2023-08-06T21:16:57;3.43;;;2.00;;
12222;SDS011;6174;49.058;8.524;2023-08-06T21:19:24;3.10;;;1.80;;
12222;SDS011;6174;49.058;8.524;2023-08-06T21:21:52;3.43;;;2.10;;